Terminal Aerodrome Forecast
Issued by NWS Paducah, KY

Home | Current Version | Previous Version | Text Only | Print | Product List | Glossary On
Versions: 1 2 3 4 5 6 7 8 9 10 11 12 13 14 15 16 17 18
000
FTUS43 KPAH 222300
TAFEVV
TAF
KEVV 222320Z 2300/2324 15007KT 6SM -SHRA BR BKN015 OVC030
     FM230300 17007KT 4SM -DZ BR OVC008
     FM230900 23007KT 4SM BR BKN005 OVC080
     FM231500 VRB04KT 5SM BR BKN015 OVC040=

USA.gov is the U.S. government's official web portal to all federal, state and local government web resources and services.